Airfield :
LOGIN :

Register | Disclaimer

   EN    FR    IT 

 










Legend :    VFR   Marginal VFR   IFR   Intensive IFR   Very Intensive IFR
Visi :
Ceiling :
>= 8 km
>= 3000ft
5 to 8 km
1000 to 3000 ft
1500m to 5 km
500 to 1000 ft
800 to 1500m
200 to 500 ft
< 800m
< 200 ft
Symbols :   Thunderstorms  Fog  Heavy snow  Heavy precipitations  Wind > 20 kt
SIGMETs :     Misc.  Thunderstorms  Icing  Turbulence  Mountain Waves  Volcanic Ashes







- Airport Elevation : 1516 ft
- IATA code : AGB


EDMA - Augsburg

CURRENT METAR :
  • 191620Z 07007KT 010V100 CAVOK 20/00 Q1026

EXPIRED METARs :
  • 191550Z 09008KT 030V130 CAVOK 20/01 Q1026
  • 191520Z 10008KT 080V150 CAVOK 21/01 Q1026
  • 191450Z 12008KT 070V150 CAVOK 21/01 Q1026
  • 191420Z 08008KT 030V120 CAVOK 21/01 Q1027
  • 191350Z 06008KT 030V110 CAVOK 21/03 Q1027
  • 191320Z 09006KT 340V130 CAVOK 21/01 Q1027

TAF TAF EDMA
Valid from the 19 at 15:00 until the 20 at 00:00 UTC


191400Z 1915/1924 07007KT CAVOK
No reported NOTAMs for that airfield.



MET'MAP, your aeronautical weather chart ! - Copyright ORBIFLY December 2007 - Disclaimer

ORBIFLY MET'MAP TEAM :

Programming & Development : Alexandra Zaïnal
Concept & Development : Baudouin d'Aumeries
Co-Development & Prog : Marc-Olivier Méhu
Technical & hardware support : Manuel Goepfert

Contact : metmap@orbifly.com




SOURCES & CREDITS :

   NOAA